Bookmark and Share
Track history (hours):
 

Bungo Princess

Last reported at 2014-Apr-15 01:34 UTC. Time now 2014-Apr-21 12:13 UTC.
Position N 34°18' E 134°59'.

Length 103 m; draft 6.7 m.

Type: Ship. MMSI: 355091000.

NotesDate/timePositionNaut miles runAvg speedWind from/ knotsBaromVisibWave heightAir tempDewpointWater temp
2014-Apr-15 01:34N 34°18' E 134°59'1312.7
2014-Apr-15 00:33N 34°30' E 135°03'  
2014-Apr-11 18:33N 34°34' E 134°49'1211.6
2014-Apr-11 17:32N 34°36' E 135°03'1110.5
2014-Apr-11 16:30N 34°26' E 135°02'1111.6
2014-Apr-11 15:33N 34°15' E 134°59'  
2014-Apr-07 00:26N 22°21' E 114°02'910.0
2014-Apr-06 23:32N 22°24' E 113°53'4 3.9
2014-Apr-06 22:28N 22°28' E 113°54'0 0.0
2014-Apr-06 20:28N 22°28' E 113°54'0 0.0
2014-Apr-06 19:28N 22°28' E 113°54'0 0.0
2014-Apr-06 18:22N 22°28' E 113°54'0 0.0
2014-Apr-06 17:28N 22°28' E 113°54'0 0.0
2014-Apr-06 15:28N 22°28' E 113°54'0 0.0
2014-Apr-06 14:22N 22°28' E 113°54'0 0.0
2014-Apr-06 13:28N 22°28' E 113°54'0 0.0
2014-Apr-06 11:22N 22°28' E 113°54'0 0.0
2014-Apr-06 10:16N 22°28' E 113°54'1 1.5
2014-Apr-06 09:33N 22°27' E 113°54'10 7.7
2014-Apr-06 08:15N 22°21' E 114°03'9 0.6
2014-Apr-05 17:14N 22°13' E 114°05'4 6.6
2014-Apr-05 16:33N 22°08' E 114°04'9 7.5
2014-Apr-05 15:23N 22°07' E 113°55'6 7.8
2014-Apr-05 14:33N 22°08' E 113°48'9 9.0
2014-Apr-05 13:33N 22°17' E 113°48'2014.2
2014-Apr-05 12:06N 22°37' E 113°42'712.2
2014-Apr-05 11:33N 22°44' E 113°40'7 1.6
2014-Apr-05 07:24N 22°48' E 113°35'  

Dump ship's entire track history

sailing weather and tide predictions

Bungo Princess — 3FXV8 — position and weather